createdAt,value
2019-04-28T00:02:22.438Z,1.90
2019-04-28T00:04:51.465Z,1.60
2019-04-28T00:07:21.521Z,1.57
2019-04-28T00:09:51.132Z,2.10
2019-04-28T00:12:21.021Z,2.10
2019-04-28T00:14:51.533Z,1.53
2019-04-28T00:17:21.069Z,1.73
2019-04-28T00:19:51.461Z,1.77
2019-04-28T00:22:21.754Z,1.60
2019-04-28T00:24:57.955Z,1.70
2019-04-28T00:27:26.431Z,2.20
2019-04-28T00:29:54.852Z,2.10
2019-04-28T00:32:23.260Z,2.13
2019-04-28T00:34:51.670Z,1.83
2019-04-28T00:37:24.372Z,1.50
2019-04-28T00:39:52.794Z,1.90
2019-04-28T00:42:22.776Z,1.70
2019-04-28T00:44:51.614Z,1.90
2019-04-28T00:47:21.086Z,1.87
2019-04-28T00:49:51.776Z,1.37
2019-04-28T00:52:22.092Z,1.93
2019-04-28T00:54:52.323Z,1.60
2019-04-28T00:57:21.265Z,2.00
2019-04-28T00:59:56.835Z,2.03
2019-04-28T01:02:22.053Z,2.03
2019-04-28T01:04:51.441Z,2.20
2019-04-28T01:07:21.272Z,1.83
2019-04-28T01:09:51.494Z,2.07
2019-04-28T01:12:21.287Z,1.67
2019-04-28T01:14:52.179Z,1.93
2019-04-28T01:17:24.723Z,2.03
2019-04-28T01:19:54.831Z,2.23
2019-04-28T01:22:23.416Z,2.10
2019-04-28T01:24:51.816Z,2.00
2019-04-28T01:27:31.127Z,2.07
2019-04-28T01:30:08.009Z,1.90
2019-04-28T01:32:44.743Z,2.10
2019-04-28T01:35:13.597Z,2.13
2019-04-28T01:37:42.078Z,2.40
2019-04-28T01:40:12.595Z,2.33
2019-04-28T01:42:41.298Z,2.20
2019-04-28T01:45:10.552Z,2.47
2019-04-28T01:47:40.473Z,2.40
2019-04-28T01:50:10.223Z,2.13
2019-04-28T01:52:39.905Z,2.10
2019-04-28T01:55:10.128Z,2.57
2019-04-28T01:57:39.984Z,2.30
2019-04-28T02:00:21.892Z,2.60
2019-04-28T02:02:41.338Z,2.17
2019-04-28T02:05:09.949Z,2.43
2019-04-28T02:07:40.597Z,2.07
2019-04-28T02:10:10.278Z,2.40
2019-04-28T02:12:40.356Z,2.40
2019-04-28T02:15:10.462Z,2.00
2019-04-28T02:17:40.126Z,2.30
2019-04-28T02:20:10.390Z,2.27
2019-04-28T02:22:46.447Z,1.93
2019-04-28T02:25:14.859Z,2.00
2019-04-28T02:27:43.299Z,2.40
2019-04-28T02:30:11.989Z,2.27
2019-04-28T02:32:41.007Z,2.20
2019-04-28T02:35:10.609Z,2.33
2019-04-28T02:37:40.638Z,7.30
2019-04-28T02:40:10.581Z,2.80
2019-04-28T02:42:40.929Z,2.40
2019-04-28T02:45:11.728Z,2.17
2019-04-28T02:47:41.992Z,1.90
2019-04-28T02:50:12.419Z,2.37
2019-04-28T02:53:01.375Z,2.10
2019-04-28T02:55:31.385Z,2.60
2019-04-28T02:58:01.486Z,2.50
2019-04-28T03:00:31.735Z,2.40
2019-04-28T03:03:01.329Z,2.50
2019-04-28T03:05:30.325Z,2.83
2019-04-28T03:08:00.938Z,3.10
2019-04-28T03:10:31.030Z,2.63
2019-04-28T03:13:00.983Z,2.83
2019-04-28T03:15:30.383Z,2.70
2019-04-28T03:18:01.714Z,2.60
2019-04-28T03:20:30.585Z,2.60
2019-04-28T03:23:00.983Z,3.40
2019-04-28T03:25:33.422Z,3.00
2019-04-28T03:28:21.395Z,3.47
2019-04-28T03:30:53.836Z,4.17
2019-04-28T03:33:25.452Z,3.57
2019-04-28T03:35:53.897Z,3.80
2019-04-28T03:38:22.541Z,3.50
2019-04-28T03:40:51.394Z,3.70
2019-04-28T03:43:21.302Z,4.20
2019-04-28T03:46:03.873Z,3.80
2019-04-28T03:48:33.717Z,3.80
2019-04-28T03:51:02.343Z,4.03
2019-04-28T03:53:31.355Z,3.83
2019-04-28T03:56:01.517Z,3.27
2019-04-28T03:58:31.097Z,3.47
2019-04-28T04:01:02.726Z,3.23
2019-04-28T04:03:30.527Z,4.00
2019-04-28T04:06:00.819Z,4.10
2019-04-28T04:08:30.907Z,4.50
2019-04-28T04:11:16.655Z,4.17
2019-04-28T04:13:51.375Z,4.40
2019-04-28T04:16:21.315Z,4.00
2019-04-28T04:18:54.186Z,3.50
2019-04-28T04:21:22.703Z,3.77
2019-04-28T04:23:51.180Z,4.23
2019-04-28T04:26:21.237Z,3.90
2019-04-28T04:28:51.464Z,4.27
2019-04-28T04:31:20.055Z,3.90
2019-04-28T04:33:50.524Z,3.80
2019-04-28T04:36:20.827Z,4.33
2019-04-28T04:38:51.312Z,4.10
2019-04-28T04:41:20.217Z,4.00
2019-04-28T04:43:51.286Z,4.40
2019-04-28T04:46:21.937Z,4.07
2019-04-28T04:48:51.044Z,4.10
2019-04-28T04:51:21.270Z,4.40
2019-04-28T04:53:51.019Z,4.07
2019-04-28T04:56:21.117Z,4.00
2019-04-28T04:58:50.612Z,4.40
2019-04-28T05:01:20.856Z,4.20
2019-04-28T05:03:56.964Z,4.30
2019-04-28T05:06:34.901Z,4.10
2019-04-28T05:09:06.390Z,4.40
2019-04-28T05:11:34.887Z,4.57
2019-04-28T05:14:07.346Z,4.10
2019-04-28T05:16:35.140Z,3.87
2019-04-28T05:19:03.904Z,4.10
2019-04-28T05:21:33.449Z,4.10
2019-04-28T05:24:20.268Z,4.13
2019-04-28T05:26:51.433Z,3.90
2019-04-28T05:29:26.596Z,4.40
2019-04-28T05:31:50.489Z,4.53
2019-04-28T05:34:20.493Z,3.80
2019-04-28T05:36:50.491Z,4.53
2019-04-28T05:39:19.604Z,5.17
2019-04-28T05:41:50.300Z,5.90
2019-04-28T05:44:20.211Z,6.00
2019-04-28T05:46:50.393Z,5.67
2019-04-28T05:49:26.435Z,5.73
2019-04-28T05:52:12.724Z,5.53
2019-04-28T05:54:45.753Z,5.50
2019-04-28T05:57:27.952Z,5.40
2019-04-28T06:00:01.050Z,5.43
2019-04-28T06:02:30.687Z,4.87
2019-04-28T06:04:59.955Z,5.00
2019-04-28T06:07:35.947Z,5.13
2019-04-28T06:10:06.025Z,5.27
2019-04-28T06:12:34.504Z,5.20
2019-04-28T06:15:03.878Z,5.10
2019-04-28T06:17:32.335Z,4.43
2019-04-28T06:20:00.795Z,4.60
2019-04-28T06:22:29.200Z,4.27
2019-04-28T06:24:57.620Z,4.57
2019-04-28T06:27:26.028Z,5.10
2019-04-28T06:29:54.462Z,3.90
2019-04-28T06:32:22.848Z,3.97
2019-04-28T06:34:51.289Z,4.37
2019-04-28T06:37:19.711Z,4.07
2019-04-28T06:39:48.170Z,3.77
2019-04-28T06:42:16.628Z,3.93
2019-04-28T06:44:45.082Z,4.13
2019-04-28T06:47:13.486Z,3.40
2019-04-28T06:49:42.170Z,3.60
2019-04-28T06:52:10.576Z,3.97
2019-04-28T06:54:38.998Z,4.43
2019-04-28T06:57:07.415Z,3.90
2019-04-28T06:59:35.836Z,3.77
2019-04-28T07:02:04.328Z,4.77
2019-04-28T07:04:32.776Z,4.20
2019-04-28T07:07:01.260Z,3.60
2019-04-28T07:09:29.739Z,3.10
2019-04-28T07:11:58.250Z,3.37
2019-04-28T07:14:26.656Z,3.00
2019-04-28T07:16:55.063Z,2.77
2019-04-28T07:19:23.620Z,2.70
2019-04-28T07:21:53.695Z,3.23
2019-04-28T07:24:22.221Z,2.63
2019-04-28T07:26:50.675Z,3.00
2019-04-28T07:29:19.099Z,3.13
2019-04-28T07:31:47.627Z,3.20
2019-04-28T07:34:16.039Z,2.70
2019-04-28T07:36:44.496Z,2.90
2019-04-28T07:39:12.903Z,2.47
2019-04-28T07:41:41.330Z,2.87
2019-04-28T07:44:09.728Z,2.20
2019-04-28T07:46:38.140Z,2.73
2019-04-28T07:49:06.564Z,2.63
2019-04-28T07:51:36.620Z,2.50
2019-04-28T07:54:12.717Z,2.07
2019-04-28T07:56:41.134Z,2.07
2019-04-28T07:59:09.527Z,2.50
2019-04-28T08:01:38.017Z,2.30
2019-04-28T08:04:06.415Z,2.40
2019-04-28T08:06:34.841Z,2.67
2019-04-28T08:09:03.312Z,2.47
2019-04-28T08:11:31.744Z,2.90
2019-04-28T08:14:00.148Z,2.30
2019-04-28T08:16:28.638Z,2.80
2019-04-28T08:18:57.043Z,3.30
2019-04-28T08:21:25.459Z,2.73
2019-04-28T08:23:53.892Z,2.53
2019-04-28T08:26:22.340Z,3.90
2019-04-28T08:28:50.735Z,2.83
2019-04-28T08:31:20.803Z,3.33
2019-04-28T08:34:01.831Z,3.43
2019-04-28T08:36:20.995Z,10.17
2019-04-28T08:38:49.417Z,5.57
2019-04-28T08:41:17.824Z,5.10
2019-04-28T08:43:46.261Z,4.47
2019-04-28T08:46:14.664Z,4.07
2019-04-28T08:48:43.120Z,4.20
2019-04-28T08:51:11.566Z,3.23
2019-04-28T08:53:39.992Z,3.07
2019-04-28T08:56:08.412Z,2.80
2019-04-28T08:58:36.874Z,2.33
2019-04-28T09:01:05.408Z,2.13
2019-04-28T09:03:33.814Z,2.53
2019-04-28T09:06:02.224Z,1.70
2019-04-28T09:08:30.670Z,2.40
2019-04-28T09:10:59.078Z,2.50
2019-04-28T09:13:27.472Z,2.23
2019-04-28T09:15:55.884Z,2.10
2019-04-28T09:18:24.297Z,1.97
2019-04-28T09:20:52.692Z,2.07
2019-04-28T09:23:21.087Z,2.17
2019-04-28T09:25:49.564Z,1.80
2019-04-28T09:28:17.986Z,1.80
2019-04-28T09:30:46.928Z,2.23
2019-04-28T09:33:15.356Z,1.77
2019-04-28T09:35:43.859Z,1.43
2019-04-28T09:38:12.283Z,1.90
2019-04-28T09:40:40.764Z,2.03
2019-04-28T09:43:17.066Z,2.07
2019-04-28T09:45:49.947Z,1.87
2019-04-28T09:48:18.354Z,1.80
2019-04-28T09:50:46.757Z,1.93
2019-04-28T09:53:15.184Z,2.20
2019-04-28T09:55:43.592Z,1.90
2019-04-28T09:58:12.004Z,1.90
2019-04-28T10:00:40.667Z,2.60
2019-04-28T10:03:09.254Z,2.80
2019-04-28T10:05:37.777Z,1.70
2019-04-28T10:08:06.400Z,3.43
2019-04-28T10:10:34.835Z,2.30
2019-04-28T10:13:03.280Z,2.13
2019-04-28T10:15:31.736Z,1.60
2019-04-28T10:18:00.140Z,2.30
2019-04-28T10:20:28.632Z,1.77
2019-04-28T10:22:57.088Z,1.60
2019-04-28T10:25:25.653Z,1.90
2019-04-28T10:27:54.055Z,1.80
2019-04-28T10:30:22.575Z,1.87
2019-04-28T10:32:50.988Z,2.03
2019-04-28T10:35:19.491Z,2.03
2019-04-28T10:37:47.965Z,1.93
2019-04-28T10:40:30.001Z,1.80
2019-04-28T10:42:58.443Z,1.90
2019-04-28T10:45:28.495Z,1.80
2019-04-28T10:47:56.978Z,1.90
2019-04-28T10:50:25.450Z,1.70
2019-04-28T10:52:53.886Z,1.70
2019-04-28T10:55:22.371Z,1.60
2019-04-28T10:57:50.928Z,1.40
2019-04-28T11:00:21.127Z,1.40
2019-04-28T11:02:49.546Z,0.93
2019-04-28T11:05:19.722Z,1.60
2019-04-28T11:07:48.109Z,1.13
2019-04-28T11:10:17.783Z,1.63
2019-04-28T11:12:46.187Z,1.40
2019-04-28T11:15:19.572Z,1.53
2019-04-28T11:17:47.971Z,1.00
2019-04-28T11:20:16.418Z,0.63
2019-04-28T11:22:45.060Z,0.80
2019-04-28T11:25:13.960Z,0.70
2019-04-28T11:27:42.454Z,0.80
2019-04-28T11:30:11.204Z,0.67
2019-04-28T11:32:41.335Z,0.70
2019-04-28T11:35:21.679Z,1.43
2019-04-28T11:37:47.519Z,1.27
2019-04-28T11:40:16.001Z,1.07
2019-04-28T11:42:44.420Z,1.10
2019-04-28T11:45:13.335Z,1.20
2019-04-28T11:47:41.766Z,0.97
2019-04-28T11:50:10.620Z,1.10
2019-04-28T11:52:39.059Z,1.83
2019-04-28T11:55:07.631Z,1.00
2019-04-28T11:57:36.223Z,1.03
2019-04-28T12:00:08.004Z,1.90
2019-04-28T12:02:36.498Z,1.50
2019-04-28T12:05:06.208Z,1.50
2019-04-28T12:07:34.633Z,1.20
2019-04-28T12:10:13.763Z,1.30
2019-04-28T12:13:00.090Z,1.20
2019-04-28T12:15:30.135Z,1.30
2019-04-28T12:18:15.360Z,1.20
2019-04-28T12:20:43.960Z,1.30
2019-04-28T12:23:12.359Z,1.30
2019-04-28T12:25:40.765Z,1.23
2019-04-28T12:28:10.928Z,2.00
2019-04-28T12:30:39.377Z,2.67
2019-04-28T12:33:07.799Z,2.47
2019-04-28T12:35:47.113Z,1.60
2019-04-28T12:38:06.380Z,2.97
2019-04-28T12:40:34.815Z,1.90
2019-04-28T12:43:03.241Z,1.37
2019-04-28T12:45:35.301Z,1.50
2019-04-28T12:48:01.963Z,1.33
2019-04-28T12:50:32.012Z,1.00
2019-04-28T12:53:00.435Z,1.90
2019-04-28T12:55:28.975Z,1.70
2019-04-28T12:57:57.467Z,1.90
2019-04-28T13:00:27.531Z,1.80
2019-04-28T13:03:06.294Z,1.90
2019-04-28T13:05:36.356Z,2.03
2019-04-28T13:08:05.011Z,2.40
2019-04-28T13:10:33.406Z,1.73
2019-04-28T13:13:01.835Z,1.60
2019-04-28T13:15:30.243Z,1.57
2019-04-28T13:17:58.692Z,1.60
2019-04-28T13:20:27.071Z,1.57
2019-04-28T13:22:55.675Z,2.10
2019-04-28T13:25:24.092Z,1.90
2019-04-28T13:27:52.552Z,1.43
2019-04-28T13:30:21.084Z,1.80
2019-04-28T13:32:49.552Z,1.70
2019-04-28T13:35:18.166Z,2.00
2019-04-28T13:37:46.578Z,1.80
2019-04-28T13:40:17.182Z,2.10
2019-04-28T13:42:45.616Z,1.90
2019-04-28T13:45:18.606Z,2.17
2019-04-28T13:47:47.196Z,1.50
2019-04-28T13:50:20.764Z,1.40
2019-04-28T13:52:49.219Z,1.03
2019-04-28T13:55:19.494Z,0.80
2019-04-28T13:57:47.980Z,0.40
2019-04-28T14:00:34.913Z,0.60
2019-04-28T14:03:20.056Z,0.40
2019-04-28T14:06:06.219Z,0.47
2019-04-28T14:08:34.773Z,0.80
2019-04-28T14:11:03.307Z,0.50
2019-04-28T14:13:31.760Z,0.60
2019-04-28T14:16:00.185Z,0.50
2019-04-28T14:18:28.606Z,0.90
2019-04-28T14:20:57.095Z,0.47
2019-04-28T14:23:25.516Z,0.80
2019-04-28T14:25:53.967Z,0.60
2019-04-28T14:28:22.445Z,0.57
2019-04-28T14:30:50.883Z,0.57
2019-04-28T14:33:19.303Z,0.70
2019-04-28T14:35:47.722Z,0.60
2019-04-28T14:38:16.184Z,0.73
2019-04-28T14:40:44.647Z,0.70
2019-04-28T14:43:13.088Z,0.53
2019-04-28T14:45:41.487Z,0.60
2019-04-28T14:48:10.037Z,0.70
2019-04-28T14:50:38.511Z,0.70
2019-04-28T14:53:08.629Z,0.50
2019-04-28T14:55:37.119Z,0.87
2019-04-28T14:58:05.564Z,1.00
2019-04-28T15:00:35.687Z,0.80
2019-04-28T15:03:05.770Z,0.80
2019-04-28T15:05:35.996Z,0.60
2019-04-28T15:08:22.389Z,1.20
2019-04-28T15:10:52.642Z,1.30
2019-04-28T15:13:22.407Z,1.50
2019-04-28T15:15:50.966Z,1.50
2019-04-28T15:18:19.532Z,1.53
2019-04-28T15:20:48.081Z,1.67
2019-04-28T15:23:16.561Z,1.40
2019-04-28T15:25:45.179Z,1.60
2019-04-28T15:28:13.577Z,1.50
2019-04-28T15:30:42.094Z,1.30
2019-04-28T15:33:10.808Z,1.07
2019-04-28T15:35:39.222Z,0.90
2019-04-28T15:38:07.649Z,1.00
2019-04-28T15:40:36.073Z,0.70
2019-04-28T15:43:04.481Z,0.67
2019-04-28T15:45:32.907Z,0.90
2019-04-28T15:48:01.321Z,0.80
2019-04-28T15:50:29.741Z,0.70
2019-04-28T15:52:58.140Z,0.70
2019-04-28T15:55:40.201Z,0.60
2019-04-28T15:58:26.280Z,0.60
2019-04-28T16:00:54.815Z,0.70
2019-04-28T16:03:23.221Z,0.60
2019-04-28T16:05:51.808Z,0.50
2019-04-28T16:08:20.248Z,0.60
2019-04-28T16:10:48.677Z,0.60
2019-04-28T16:13:17.071Z,0.40
2019-04-28T16:15:45.788Z,0.60
2019-04-28T16:18:14.201Z,0.80
2019-04-28T16:20:42.651Z,0.63
2019-04-28T16:23:11.232Z,0.80
2019-04-28T16:25:39.634Z,0.90
2019-04-28T16:28:08.035Z,0.60
2019-04-28T16:30:36.471Z,0.60
2019-04-28T16:33:04.879Z,0.50
2019-04-28T16:35:33.310Z,0.53
2019-04-28T16:38:01.728Z,0.50
2019-04-28T16:40:30.155Z,0.70
2019-04-28T16:42:58.569Z,0.83
2019-04-28T16:45:27.002Z,1.00
2019-04-28T16:47:55.400Z,0.90
2019-04-28T16:50:23.863Z,0.70
2019-04-28T16:52:52.285Z,0.67
2019-04-28T16:55:25.078Z,0.60
2019-04-28T16:58:10.119Z,0.70
2019-04-28T17:00:46.158Z,0.70
2019-04-28T17:03:14.663Z,0.67
2019-04-28T17:05:43.191Z,0.73
2019-04-28T17:08:11.676Z,0.60
2019-04-28T17:10:40.118Z,0.73
2019-04-28T17:13:08.519Z,0.70
2019-04-28T17:15:36.947Z,0.50
2019-04-28T17:18:05.481Z,0.50
2019-04-28T17:20:33.903Z,0.90
2019-04-28T17:23:02.334Z,1.93
2019-04-28T17:25:30.742Z,1.30
2019-04-28T17:27:59.155Z,6.07
2019-04-28T17:30:29.404Z,3.57
2019-04-28T17:32:57.821Z,0.70
2019-04-28T17:35:26.292Z,0.70
2019-04-28T17:38:06.003Z,0.60
2019-04-28T17:40:25.068Z,0.90
2019-04-28T17:42:53.553Z,0.70
2019-04-28T17:45:22.031Z,0.60
2019-04-28T17:47:52.104Z,0.70
2019-04-28T17:50:21.563Z,0.60
2019-04-28T17:52:49.978Z,0.60
2019-04-28T17:55:18.376Z,0.73
2019-04-28T17:57:46.821Z,0.63
2019-04-28T18:00:17.636Z,0.87
2019-04-28T18:03:03.728Z,1.30
2019-04-28T18:05:39.697Z,1.67
2019-04-28T18:08:20.419Z,6.10
2019-04-28T18:10:38.369Z,5.13
2019-04-28T18:13:06.875Z,1.97
2019-04-28T18:15:39.622Z,2.60
2019-04-28T18:18:09.791Z,1.27
2019-04-28T18:20:38.161Z,1.20
2019-04-28T18:23:08.116Z,0.70
2019-04-28T18:25:36.673Z,0.70
2019-04-28T18:28:05.096Z,1.10
2019-04-28T18:30:35.164Z,0.80
2019-04-28T18:33:05.245Z,0.80
2019-04-28T18:35:35.284Z,0.80
2019-04-28T18:38:05.336Z,0.87
2019-04-28T18:40:41.155Z,0.93
2019-04-28T18:43:13.341Z,0.70
2019-04-28T18:45:41.505Z,0.80
2019-04-28T18:48:09.925Z,0.90
2019-04-28T18:50:38.346Z,1.10
2019-04-28T18:53:06.761Z,1.10
2019-04-28T18:55:35.164Z,0.90
2019-04-28T18:58:03.669Z,0.90
2019-04-28T19:00:33.713Z,0.70
2019-04-28T19:03:02.136Z,0.87
2019-04-28T19:05:32.175Z,0.93
2019-04-28T19:08:05.146Z,1.00
2019-04-28T19:10:35.179Z,5.50
2019-04-28T19:13:17.204Z,3.47
2019-04-28T19:16:05.716Z,4.77
2019-04-28T19:18:44.771Z,4.90
2019-04-28T19:21:13.180Z,4.33
2019-04-28T19:23:41.615Z,4.27
2019-04-28T19:26:10.032Z,3.83
2019-04-28T19:28:38.459Z,2.50
2019-04-28T19:31:07.417Z,2.47
2019-04-28T19:33:35.839Z,2.10
2019-04-28T19:36:04.334Z,3.27
2019-04-28T19:38:34.403Z,2.17
2019-04-28T19:41:02.794Z,1.60
2019-04-28T19:43:31.197Z,2.40
2019-04-28T19:46:01.263Z,2.00
2019-04-28T19:48:29.660Z,1.90
2019-04-28T19:50:58.100Z,2.20
2019-04-28T19:53:26.491Z,1.97
2019-04-28T19:55:59.432Z,1.93
2019-04-28T19:58:32.190Z,2.00
2019-04-28T20:01:02.322Z,3.57
2019-04-28T20:03:30.727Z,2.40
2019-04-28T20:05:59.157Z,2.30
2019-04-28T20:08:27.556Z,2.13
2019-04-28T20:10:55.996Z,2.20
2019-04-28T20:13:24.400Z,1.93
2019-04-28T20:15:52.819Z,1.70
2019-04-28T20:18:21.240Z,2.37
2019-04-28T20:20:49.671Z,2.20
2019-04-28T20:23:18.068Z,2.23
2019-04-28T20:25:46.499Z,2.00
2019-04-28T20:28:14.965Z,2.20
2019-04-28T20:30:43.391Z,2.20
2019-04-28T20:33:24.327Z,2.30
2019-04-28T20:35:54.384Z,2.00
2019-04-28T20:38:30.309Z,2.43
2019-04-28T20:41:09.591Z,2.00
2019-04-28T20:43:38.004Z,1.80
2019-04-28T20:46:06.503Z,2.03
2019-04-28T20:48:34.933Z,1.70
2019-04-28T20:51:03.373Z,1.97
2019-04-28T20:53:31.792Z,1.57
2019-04-28T20:56:00.219Z,1.80
2019-04-28T20:58:28.659Z,1.80
2019-04-28T21:00:57.092Z,2.00
2019-04-28T21:03:25.499Z,2.20
2019-04-28T21:05:53.929Z,1.77
2019-04-28T21:08:22.353Z,2.10
2019-04-28T21:10:50.787Z,1.80
2019-04-28T21:13:19.198Z,2.13
2019-04-28T21:15:47.603Z,2.23
2019-04-28T21:18:16.023Z,2.13
2019-04-28T21:20:44.462Z,2.00
2019-04-28T21:23:12.866Z,1.83
2019-04-28T21:25:41.275Z,2.00
2019-04-28T21:28:09.688Z,1.93
2019-04-28T21:30:38.080Z,1.87
2019-04-28T21:33:06.501Z,3.77
2019-04-28T21:35:34.904Z,2.17
2019-04-28T21:38:03.356Z,2.80
2019-04-28T21:40:32.018Z,3.90
2019-04-28T21:43:05.075Z,2.47
2019-04-28T21:45:51.303Z,2.57
2019-04-28T21:48:36.661Z,2.67
2019-04-28T21:51:05.107Z,2.70
2019-04-28T21:53:33.707Z,2.90
2019-04-28T21:56:02.099Z,2.60
2019-04-28T21:58:33.225Z,2.27
2019-04-28T22:01:01.178Z,2.83
2019-04-28T22:03:29.593Z,2.30
2019-04-28T22:05:58.168Z,2.70
2019-04-28T22:08:26.601Z,2.57
2019-04-28T22:10:55.010Z,2.53
2019-04-28T22:13:23.432Z,2.40
2019-04-28T22:15:51.848Z,2.17
2019-04-28T22:18:20.272Z,2.23
2019-04-28T22:20:48.686Z,2.10
2019-04-28T22:23:31.059Z,2.20
2019-04-28T22:25:59.460Z,2.30
2019-04-28T22:28:27.887Z,3.80
2019-04-28T22:30:56.287Z,2.73
2019-04-28T22:33:24.700Z,2.80
2019-04-28T22:35:53.108Z,3.03
2019-04-28T22:38:21.550Z,2.30
2019-04-28T22:40:49.962Z,2.80
2019-04-28T22:43:18.371Z,2.30
2019-04-28T22:45:46.789Z,2.70
2019-04-28T22:48:16.931Z,2.17
2019-04-28T22:50:47.983Z,2.60
2019-04-28T22:53:18.069Z,2.43
2019-04-28T22:55:48.493Z,2.37
2019-04-28T22:58:27.622Z,2.40
2019-04-28T23:01:03.374Z,2.50
2019-04-28T23:03:33.429Z,2.10
2019-04-28T23:06:01.836Z,2.40
2019-04-28T23:08:30.274Z,2.20
2019-04-28T23:10:58.794Z,2.17
2019-04-28T23:13:27.207Z,1.83
2019-04-28T23:15:55.616Z,2.10
2019-04-28T23:18:24.031Z,2.00
2019-04-28T23:21:11.071Z,2.23
2019-04-28T23:23:39.529Z,2.13
2019-04-28T23:26:08.014Z,2.33
2019-04-28T23:28:36.775Z,2.37
2019-04-28T23:31:05.346Z,2.10
2019-04-28T23:33:33.755Z,1.97
2019-04-28T23:36:02.158Z,2.00
2019-04-28T23:38:30.580Z,2.00
2019-04-28T23:41:00.631Z,2.33
2019-04-28T23:43:29.054Z,2.33
2019-04-28T23:45:57.463Z,2.23
2019-04-28T23:48:25.897Z,2.40
2019-04-28T23:50:58.616Z,2.30
2019-04-28T23:53:45.244Z,2.77
2019-04-28T23:56:13.642Z,2.27
2019-04-28T23:58:42.051Z,2.20
